sensor_id;sensor_type;location;lat;lon;timestamp;P1;durP1;ratioP1;P2;durP2;ratioP2
62616;SDS011;62539;51.190;6.808;2023-07-13T00:01:50;1.90;;;1.00;;
62616;SDS011;62539;51.190;6.808;2023-07-13T00:04:17;2.35;;;1.00;;
62616;SDS011;62539;51.190;6.808;2023-07-13T00:06:45;1.25;;;0.70;;
62616;SDS011;62539;51.190;6.808;2023-07-13T00:09:15;3.58;;;1.10;;
62616;SDS011;62539;51.190;6.808;2023-07-13T00:11:42;1.17;;;0.80;;
62616;SDS011;62539;51.190;6.808;2023-07-13T00:14:10;2.25;;;1.05;;
62616;SDS011;62539;51.190;6.808;2023-07-13T00:16:37;1.92;;;0.80;;
62616;SDS011;62539;51.190;6.808;2023-07-13T00:19:06;1.95;;;0.70;;
62616;SDS011;62539;51.190;6.808;2023-07-13T00:21:31;1.45;;;0.80;;
62616;SDS011;62539;51.190;6.808;2023-07-13T00:23:57;1.30;;;0.82;;
62616;SDS011;62539;51.190;6.808;2023-07-13T00:26:22;1.52;;;0.70;;
62616;SDS011;62539;51.190;6.808;2023-07-13T00:28:48;3.20;;;0.98;;
62616;SDS011;62539;51.190;6.808;2023-07-13T00:31:14;2.20;;;0.90;;
62616;SDS011;62539;51.190;6.808;2023-07-13T00:33:40;3.53;;;1.10;;
62616;SDS011;62539;51.190;6.808;2023-07-13T00:36:07;0.80;;;0.60;;
62616;SDS011;62539;51.190;6.808;2023-07-13T00:38:34;2.65;;;0.90;;
62616;SDS011;62539;51.190;6.808;2023-07-13T00:41:01;1.73;;;0.77;;
62616;SDS011;62539;51.190;6.808;2023-07-13T00:43:28;1.40;;;0.90;;
62616;SDS011;62539;51.190;6.808;2023-07-13T00:48:21;1.47;;;0.73;;
62616;SDS011;62539;51.190;6.808;2023-07-13T00:50:53;3.25;;;1.00;;
62616;SDS011;62539;51.190;6.808;2023-07-13T00:53:24;2.05;;;0.80;;
62616;SDS011;62539;51.190;6.808;2023-07-13T00:55:52;1.67;;;0.88;;
62616;SDS011;62539;51.190;6.808;2023-07-13T00:58:21;1.60;;;0.73;;
62616;SDS011;62539;51.190;6.808;2023-07-13T01:00:49;1.55;;;0.80;;
62616;SDS011;62539;51.190;6.808;2023-07-13T01:03:16;1.55;;;0.80;;
62616;SDS011;62539;51.190;6.808;2023-07-13T01:05:41;1.63;;;0.80;;
62616;SDS011;62539;51.190;6.808;2023-07-13T01:08:07;2.15;;;0.68;;
62616;SDS011;62539;51.190;6.808;2023-07-13T01:10:33;1.38;;;0.70;;
62616;SDS011;62539;51.190;6.808;2023-07-13T01:13:04;2.63;;;0.90;;
62616;SDS011;62539;51.190;6.808;2023-07-13T01:15:39;1.38;;;0.80;;
62616;SDS011;62539;51.190;6.808;2023-07-13T01:18:11;1.50;;;0.70;;
62616;SDS011;62539;51.190;6.808;2023-07-13T01:20:59;3.55;;;1.05;;
62616;SDS011;62539;51.190;6.808;2023-07-13T01:23:28;1.85;;;0.95;;
62616;SDS011;62539;51.190;6.808;2023-07-13T01:25:55;1.65;;;0.70;;
62616;SDS011;62539;51.190;6.808;2023-07-13T01:28:23;0.70;;;0.60;;
62616;SDS011;62539;51.190;6.808;2023-07-13T01:30:52;3.13;;;0.95;;
62616;SDS011;62539;51.190;6.808;2023-07-13T01:33:20;0.70;;;0.65;;
62616;SDS011;62539;51.190;6.808;2023-07-13T01:35:46;1.05;;;0.70;;
62616;SDS011;62539;51.190;6.808;2023-07-13T01:38:14;2.10;;;0.70;;
62616;SDS011;62539;51.190;6.808;2023-07-13T01:40:42;1.42;;;0.52;;
62616;SDS011;62539;51.190;6.808;2023-07-13T01:43:08;2.75;;;0.82;;
62616;SDS011;62539;51.190;6.808;2023-07-13T01:45:34;2.15;;;0.68;;
62616;SDS011;62539;51.190;6.808;2023-07-13T01:47:59;1.00;;;0.70;;
62616;SDS011;62539;51.190;6.808;2023-07-13T01:50:25;1.88;;;0.98;;
62616;SDS011;62539;51.190;6.808;2023-07-13T01:52:51;3.38;;;0.80;;
62616;SDS011;62539;51.190;6.808;2023-07-13T01:55:16;1.50;;;0.68;;
62616;SDS011;62539;51.190;6.808;2023-07-13T01:57:42;3.42;;;1.00;;
62616;SDS011;62539;51.190;6.808;2023-07-13T02:00:08;1.50;;;0.80;;
62616;SDS011;62539;51.190;6.808;2023-07-13T02:05:11;1.27;;;0.80;;
62616;SDS011;62539;51.190;6.808;2023-07-13T02:07:38;2.70;;;0.88;;
62616;SDS011;62539;51.190;6.808;2023-07-13T02:10:05;1.75;;;0.80;;
62616;SDS011;62539;51.190;6.808;2023-07-13T02:12:32;3.20;;;0.68;;
62616;SDS011;62539;51.190;6.808;2023-07-13T02:14:58;1.77;;;0.70;;
62616;SDS011;62539;51.190;6.808;2023-07-13T02:17:24;0.85;;;0.70;;
62616;SDS011;62539;51.190;6.808;2023-07-13T02:19:51;1.38;;;0.80;;
62616;SDS011;62539;51.190;6.808;2023-07-13T02:22:16;1.17;;;0.60;;
62616;SDS011;62539;51.190;6.808;2023-07-13T02:24:41;1.10;;;0.65;;
62616;SDS011;62539;51.190;6.808;2023-07-13T02:27:07;3.33;;;0.77;;
62616;SDS011;62539;51.190;6.808;2023-07-13T02:29:32;1.33;;;0.60;;
62616;SDS011;62539;51.190;6.808;2023-07-13T02:31:58;1.35;;;0.82;;
62616;SDS011;62539;51.190;6.808;2023-07-13T02:34:23;1.10;;;0.85;;
62616;SDS011;62539;51.190;6.808;2023-07-13T02:36:49;2.03;;;0.77;;
62616;SDS011;62539;51.190;6.808;2023-07-13T02:39:14;0.85;;;0.70;;
62616;SDS011;62539;51.190;6.808;2023-07-13T02:41:40;2.65;;;0.95;;
62616;SDS011;62539;51.190;6.808;2023-07-13T02:44:05;1.73;;;0.90;;
62616;SDS011;62539;51.190;6.808;2023-07-13T02:46:33;1.73;;;0.80;;
62616;SDS011;62539;51.190;6.808;2023-07-13T02:49:01;1.23;;;0.70;;
62616;SDS011;62539;51.190;6.808;2023-07-13T02:51:27;1.52;;;0.80;;
62616;SDS011;62539;51.190;6.808;2023-07-13T02:53:53;1.35;;;0.75;;
62616;SDS011;62539;51.190;6.808;2023-07-13T02:56:22;0.70;;;0.65;;
62616;SDS011;62539;51.190;6.808;2023-07-13T02:58:50;2.25;;;0.80;;
62616;SDS011;62539;51.190;6.808;2023-07-13T03:01:16;1.95;;;0.90;;
62616;SDS011;62539;51.190;6.808;2023-07-13T03:03:46;1.23;;;0.70;;
62616;SDS011;62539;51.190;6.808;2023-07-13T03:06:11;1.48;;;0.90;;
62616;SDS011;62539;51.190;6.808;2023-07-13T03:08:38;2.15;;;0.68;;
62616;SDS011;62539;51.190;6.808;2023-07-13T03:11:06;1.52;;;0.88;;
62616;SDS011;62539;51.190;6.808;2023-07-13T03:13:38;1.92;;;0.90;;
62616;SDS011;62539;51.190;6.808;2023-07-13T03:16:05;1.98;;;0.88;;
62616;SDS011;62539;51.190;6.808;2023-07-13T03:18:31;1.00;;;0.80;;
62616;SDS011;62539;51.190;6.808;2023-07-13T03:20:56;1.55;;;0.70;;
62616;SDS011;62539;51.190;6.808;2023-07-13T03:23:22;0.93;;;0.60;;
62616;SDS011;62539;51.190;6.808;2023-07-13T03:25:48;1.20;;;0.70;;
62616;SDS011;62539;51.190;6.808;2023-07-13T03:28:14;1.48;;;0.70;;
62616;SDS011;62539;51.190;6.808;2023-07-13T03:30:40;0.85;;;0.70;;
62616;SDS011;62539;51.190;6.808;2023-07-13T03:33:07;2.03;;;0.90;;
62616;SDS011;62539;51.190;6.808;2023-07-13T03:35:33;3.20;;;0.75;;
62616;SDS011;62539;51.190;6.808;2023-07-13T03:38:00;2.08;;;0.73;;
62616;SDS011;62539;51.190;6.808;2023-07-13T03:40:27;1.48;;;0.82;;
62616;SDS011;62539;51.190;6.808;2023-07-13T03:42:52;1.50;;;0.82;;
62616;SDS011;62539;51.190;6.808;2023-07-13T03:45:18;1.65;;;0.77;;
62616;SDS011;62539;51.190;6.808;2023-07-13T03:47:44;1.42;;;0.85;;
62616;SDS011;62539;51.190;6.808;2023-07-13T03:50:10;1.67;;;0.70;;
62616;SDS011;62539;51.190;6.808;2023-07-13T03:52:36;3.15;;;0.65;;
62616;SDS011;62539;51.190;6.808;2023-07-13T03:55:02;1.35;;;0.93;;
62616;SDS011;62539;51.190;6.808;2023-07-13T03:57:27;1.17;;;0.63;;
62616;SDS011;62539;51.190;6.808;2023-07-13T03:59:53;1.15;;;0.80;;
62616;SDS011;62539;51.190;6.808;2023-07-13T04:02:18;1.25;;;0.63;;
62616;SDS011;62539;51.190;6.808;2023-07-13T04:04:44;1.30;;;0.60;;
62616;SDS011;62539;51.190;6.808;2023-07-13T04:07:09;2.50;;;0.88;;
62616;SDS011;62539;51.190;6.808;2023-07-13T04:09:35;2.00;;;0.73;;
62616;SDS011;62539;51.190;6.808;2023-07-13T04:12:01;1.33;;;0.82;;
62616;SDS011;62539;51.190;6.808;2023-07-13T04:14:27;1.00;;;0.70;;
62616;SDS011;62539;51.190;6.808;2023-07-13T04:16:52;1.10;;;0.77;;
62616;SDS011;62539;51.190;6.808;2023-07-13T04:19:19;0.95;;;0.73;;
62616;SDS011;62539;51.190;6.808;2023-07-13T04:21:46;0.88;;;0.68;;
62616;SDS011;62539;51.190;6.808;2023-07-13T04:24:12;1.13;;;0.70;;
62616;SDS011;62539;51.190;6.808;2023-07-13T04:26:37;1.23;;;0.70;;
62616;SDS011;62539;51.190;6.808;2023-07-13T04:29:04;1.23;;;0.77;;
62616;SDS011;62539;51.190;6.808;2023-07-13T04:31:30;1.40;;;0.70;;
62616;SDS011;62539;51.190;6.808;2023-07-13T04:33:57;0.98;;;0.60;;
62616;SDS011;62539;51.190;6.808;2023-07-13T04:36:22;2.70;;;0.90;;
62616;SDS011;62539;51.190;6.808;2023-07-13T04:38:48;1.23;;;0.60;;
62616;SDS011;62539;51.190;6.808;2023-07-13T04:41:14;2.58;;;0.80;;
62616;SDS011;62539;51.190;6.808;2023-07-13T04:43:40;1.25;;;0.73;;
62616;SDS011;62539;51.190;6.808;2023-07-13T04:46:07;1.50;;;0.90;;
62616;SDS011;62539;51.190;6.808;2023-07-13T04:48:37;2.95;;;0.70;;
62616;SDS011;62539;51.190;6.808;2023-07-13T04:51:03;2.08;;;0.90;;
62616;SDS011;62539;51.190;6.808;2023-07-13T04:53:29;2.30;;;0.73;;
62616;SDS011;62539;51.190;6.808;2023-07-13T04:55:56;1.50;;;0.70;;
62616;SDS011;62539;51.190;6.808;2023-07-13T04:58:22;6.10;;;1.40;;
62616;SDS011;62539;51.190;6.808;2023-07-13T05:00:50;2.45;;;1.08;;
62616;SDS011;62539;51.190;6.808;2023-07-13T05:03:15;3.58;;;0.95;;
62616;SDS011;62539;51.190;6.808;2023-07-13T05:05:41;2.78;;;1.00;;
62616;SDS011;62539;51.190;6.808;2023-07-13T05:08:07;1.85;;;1.10;;
62616;SDS011;62539;51.190;6.808;2023-07-13T05:10:32;2.95;;;1.15;;
62616;SDS011;62539;51.190;6.808;2023-07-13T05:13:00;2.58;;;1.23;;
62616;SDS011;62539;51.190;6.808;2023-07-13T05:15:26;8.00;;;1.10;;
62616;SDS011;62539;51.190;6.808;2023-07-13T05:17:52;3.05;;;1.13;;
62616;SDS011;62539;51.190;6.808;2023-07-13T05:20:17;7.15;;;1.10;;
62616;SDS011;62539;51.190;6.808;2023-07-13T05:22:44;3.97;;;0.80;;
62616;SDS011;62539;51.190;6.808;2023-07-13T05:25:11;3.40;;;1.30;;
62616;SDS011;62539;51.190;6.808;2023-07-13T05:27:38;3.08;;;1.10;;
62616;SDS011;62539;51.190;6.808;2023-07-13T05:30:04;5.85;;;1.17;;
62616;SDS011;62539;51.190;6.808;2023-07-13T05:32:31;1.85;;;0.90;;
62616;SDS011;62539;51.190;6.808;2023-07-13T05:34:56;3.20;;;1.13;;
62616;SDS011;62539;51.190;6.808;2023-07-13T05:37:22;4.03;;;1.40;;
62616;SDS011;62539;51.190;6.808;2023-07-13T05:39:47;2.22;;;1.00;;
62616;SDS011;62539;51.190;6.808;2023-07-13T05:42:13;3.47;;;1.20;;
62616;SDS011;62539;51.190;6.808;2023-07-13T05:44:38;4.10;;;1.10;;
62616;SDS011;62539;51.190;6.808;2023-07-13T05:47:04;5.90;;;1.30;;
62616;SDS011;62539;51.190;6.808;2023-07-13T05:49:30;2.15;;;1.00;;
62616;SDS011;62539;51.190;6.808;2023-07-13T05:51:56;2.55;;;1.05;;
62616;SDS011;62539;51.190;6.808;2023-07-13T05:54:21;1.25;;;0.80;;
62616;SDS011;62539;51.190;6.808;2023-07-13T05:56:47;6.25;;;1.30;;
62616;SDS011;62539;51.190;6.808;2023-07-13T05:59:13;5.07;;;1.20;;
62616;SDS011;62539;51.190;6.808;2023-07-13T06:01:38;5.88;;;1.17;;
62616;SDS011;62539;51.190;6.808;2023-07-13T06:04:04;2.30;;;1.10;;
62616;SDS011;62539;51.190;6.808;2023-07-13T06:06:29;2.63;;;1.05;;
62616;SDS011;62539;51.190;6.808;2023-07-13T06:08:54;4.28;;;1.33;;
62616;SDS011;62539;51.190;6.808;2023-07-13T06:11:21;3.03;;;1.25;;
62616;SDS011;62539;51.190;6.808;2023-07-13T06:13:49;4.32;;;1.42;;
62616;SDS011;62539;51.190;6.808;2023-07-13T06:16:15;4.15;;;1.25;;
62616;SDS011;62539;51.190;6.808;2023-07-13T06:18:42;9.20;;;1.33;;
62616;SDS011;62539;51.190;6.808;2023-07-13T06:21:08;3.20;;;1.25;;
62616;SDS011;62539;51.190;6.808;2023-07-13T06:23:46;2.22;;;0.95;;
62616;SDS011;62539;51.190;6.808;2023-07-13T06:26:14;3.45;;;1.08;;
62616;SDS011;62539;51.190;6.808;2023-07-13T06:28:40;5.00;;;1.15;;
62616;SDS011;62539;51.190;6.808;2023-07-13T06:31:07;3.83;;;1.05;;
62616;SDS011;62539;51.190;6.808;2023-07-13T06:33:35;2.58;;;1.20;;
62616;SDS011;62539;51.190;6.808;2023-07-13T06:36:01;4.70;;;1.20;;
62616;SDS011;62539;51.190;6.808;2023-07-13T06:38:29;7.20;;;1.17;;
62616;SDS011;62539;51.190;6.808;2023-07-13T06:40:54;6.78;;;1.67;;
62616;SDS011;62539;51.190;6.808;2023-07-13T06:43:19;4.75;;;1.30;;
62616;SDS011;62539;51.190;6.808;2023-07-13T06:45:46;3.17;;;1.10;;
62616;SDS011;62539;51.190;6.808;2023-07-13T06:48:14;3.50;;;1.20;;
62616;SDS011;62539;51.190;6.808;2023-07-13T06:50:41;3.95;;;1.30;;
62616;SDS011;62539;51.190;6.808;2023-07-13T06:53:08;1.83;;;1.10;;
62616;SDS011;62539;51.190;6.808;2023-07-13T06:55:34;6.35;;;1.48;;
62616;SDS011;62539;51.190;6.808;2023-07-13T06:58:00;5.88;;;1.38;;
62616;SDS011;62539;51.190;6.808;2023-07-13T07:00:25;2.90;;;1.20;;
62616;SDS011;62539;51.190;6.808;2023-07-13T07:02:50;4.68;;;1.15;;
62616;SDS011;62539;51.190;6.808;2023-07-13T07:05:16;5.22;;;1.40;;
62616;SDS011;62539;51.190;6.808;2023-07-13T07:07:42;3.97;;;1.20;;
62616;SDS011;62539;51.190;6.808;2023-07-13T07:10:07;3.67;;;1.13;;
62616;SDS011;62539;51.190;6.808;2023-07-13T07:12:33;3.38;;;1.30;;
62616;SDS011;62539;51.190;6.808;2023-07-13T07:14:58;6.82;;;1.77;;
62616;SDS011;62539;51.190;6.808;2023-07-13T07:17:24;6.60;;;1.38;;
62616;SDS011;62539;51.190;6.808;2023-07-13T07:19:50;3.10;;;1.30;;
62616;SDS011;62539;51.190;6.808;2023-07-13T07:22:18;4.75;;;1.00;;
62616;SDS011;62539;51.190;6.808;2023-07-13T07:24:45;6.93;;;1.50;;
62616;SDS011;62539;51.190;6.808;2023-07-13T07:27:10;4.45;;;1.13;;
62616;SDS011;62539;51.190;6.808;2023-07-13T07:29:36;3.83;;;1.10;;
62616;SDS011;62539;51.190;6.808;2023-07-13T07:32:01;4.85;;;1.40;;
62616;SDS011;62539;51.190;6.808;2023-07-13T07:34:26;3.30;;;1.25;;
62616;SDS011;62539;51.190;6.808;2023-07-13T07:36:53;4.53;;;1.20;;
62616;SDS011;62539;51.190;6.808;2023-07-13T07:39:18;5.68;;;1.40;;
62616;SDS011;62539;51.190;6.808;2023-07-13T07:41:44;5.72;;;1.40;;
62616;SDS011;62539;51.190;6.808;2023-07-13T07:44:09;12.80;;;1.63;;
62616;SDS011;62539;51.190;6.808;2023-07-13T07:46:35;4.40;;;1.38;;
62616;SDS011;62539;51.190;6.808;2023-07-13T07:49:00;7.57;;;1.35;;
62616;SDS011;62539;51.190;6.808;2023-07-13T07:51:26;3.20;;;1.30;;
62616;SDS011;62539;51.190;6.808;2023-07-13T07:53:52;4.93;;;1.55;;
62616;SDS011;62539;51.190;6.808;2023-07-13T07:56:17;5.78;;;1.50;;
62616;SDS011;62539;51.190;6.808;2023-07-13T07:58:43;3.92;;;1.30;;
62616;SDS011;62539;51.190;6.808;2023-07-13T08:01:08;4.10;;;1.42;;
62616;SDS011;62539;51.190;6.808;2023-07-13T08:03:34;10.93;;;1.52;;
62616;SDS011;62539;51.190;6.808;2023-07-13T08:05:59;3.80;;;1.40;;
62616;SDS011;62539;51.190;6.808;2023-07-13T08:08:26;6.43;;;1.40;;
62616;SDS011;62539;51.190;6.808;2023-07-13T08:10:52;5.15;;;1.20;;
62616;SDS011;62539;51.190;6.808;2023-07-13T08:13:18;8.02;;;1.60;;
62616;SDS011;62539;51.190;6.808;2023-07-13T08:15:44;3.35;;;1.25;;
62616;SDS011;62539;51.190;6.808;2023-07-13T08:18:11;8.38;;;1.70;;
62616;SDS011;62539;51.190;6.808;2023-07-13T08:20:39;10.23;;;1.30;;
62616;SDS011;62539;51.190;6.808;2023-07-13T08:23:05;5.65;;;1.55;;
62616;SDS011;62539;51.190;6.808;2023-07-13T08:25:32;6.85;;;1.80;;
62616;SDS011;62539;51.190;6.808;2023-07-13T08:27:57;15.73;;;1.70;;
62616;SDS011;62539;51.190;6.808;2023-07-13T08:30:23;7.78;;;1.88;;
62616;SDS011;62539;51.190;6.808;2023-07-13T08:32:48;9.32;;;2.22;;
62616;SDS011;62539;51.190;6.808;2023-07-13T08:35:14;11.32;;;1.90;;
62616;SDS011;62539;51.190;6.808;2023-07-13T08:37:41;9.73;;;1.42;;
62616;SDS011;62539;51.190;6.808;2023-07-13T08:40:08;6.30;;;1.95;;
62616;SDS011;62539;51.190;6.808;2023-07-13T08:42:40;4.23;;;1.67;;
62616;SDS011;62539;51.190;6.808;2023-07-13T08:48:02;6.07;;;2.03;;
62616;SDS011;62539;51.190;6.808;2023-07-13T08:53:16;5.13;;;1.67;;
62616;SDS011;62539;51.190;6.808;2023-07-13T08:55:42;9.20;;;1.83;;
62616;SDS011;62539;51.190;6.808;2023-07-13T08:58:10;9.77;;;1.90;;
62616;SDS011;62539;51.190;6.808;2023-07-13T09:03:42;7.05;;;1.60;;
62616;SDS011;62539;51.190;6.808;2023-07-13T09:06:46;4.88;;;1.73;;
62616;SDS011;62539;51.190;6.808;2023-07-13T09:09:29;7.88;;;1.70;;
62616;SDS011;62539;51.190;6.808;2023-07-13T09:17:59;6.13;;;1.60;;
62616;SDS011;62539;51.190;6.808;2023-07-13T09:20:44;4.80;;;1.47;;
62616;SDS011;62539;51.190;6.808;2023-07-13T09:23:22;9.88;;;2.33;;
62616;SDS011;62539;51.190;6.808;2023-07-13T09:25:51;7.40;;;1.80;;
62616;SDS011;62539;51.190;6.808;2023-07-13T09:28:51;4.63;;;1.60;;
62616;SDS011;62539;51.190;6.808;2023-07-13T09:31:26;5.20;;;1.70;;
62616;SDS011;62539;51.190;6.808;2023-07-13T09:33:59;9.55;;;1.77;;
62616;SDS011;62539;51.190;6.808;2023-07-13T09:36:29;8.55;;;1.67;;
62616;SDS011;62539;51.190;6.808;2023-07-13T09:42:14;4.38;;;1.60;;
62616;SDS011;62539;51.190;6.808;2023-07-13T09:44:56;5.78;;;1.73;;
62616;SDS011;62539;51.190;6.808;2023-07-13T09:47:28;5.85;;;1.50;;
62616;SDS011;62539;51.190;6.808;2023-07-13T09:49:58;4.60;;;1.60;;
62616;SDS011;62539;51.190;6.808;2023-07-13T09:52:39;5.60;;;1.38;;
62616;SDS011;62539;51.190;6.808;2023-07-13T09:55:27;3.20;;;1.48;;
62616;SDS011;62539;51.190;6.808;2023-07-13T09:58:02;8.93;;;1.95;;
62616;SDS011;62539;51.190;6.808;2023-07-13T10:00:35;5.43;;;1.58;;
62616;SDS011;62539;51.190;6.808;2023-07-13T10:03:05;6.15;;;1.50;;
62616;SDS011;62539;51.190;6.808;2023-07-13T10:05:43;3.97;;;1.40;;
62616;SDS011;62539;51.190;6.808;2023-07-13T10:08:18;6.97;;;1.30;;
62616;SDS011;62539;51.190;6.808;2023-07-13T10:10:59;6.82;;;1.35;;
62616;SDS011;62539;51.190;6.808;2023-07-13T10:13:34;7.95;;;1.50;;
62616;SDS011;62539;51.190;6.808;2023-07-13T10:16:05;5.97;;;1.50;;
62616;SDS011;62539;51.190;6.808;2023-07-13T10:18:38;4.07;;;1.40;;
62616;SDS011;62539;51.190;6.808;2023-07-13T10:21:12;6.07;;;1.40;;
62616;SDS011;62539;51.190;6.808;2023-07-13T10:23:40;9.15;;;1.95;;
62616;SDS011;62539;51.190;6.808;2023-07-13T10:26:09;9.52;;;1.90;;
62616;SDS011;62539;51.190;6.808;2023-07-13T10:28:43;7.72;;;1.50;;
62616;SDS011;62539;51.190;6.808;2023-07-13T10:31:15;8.00;;;1.30;;
62616;SDS011;62539;51.190;6.808;2023-07-13T10:33:42;5.43;;;1.50;;
62616;SDS011;62539;51.190;6.808;2023-07-13T10:38:55;4.75;;;1.48;;
62616;SDS011;62539;51.190;6.808;2023-07-13T10:41:26;6.22;;;1.63;;
62616;SDS011;62539;51.190;6.808;2023-07-13T10:43:55;5.17;;;1.47;;
62616;SDS011;62539;51.190;6.808;2023-07-13T10:46:25;4.78;;;1.33;;
62616;SDS011;62539;51.190;6.808;2023-07-13T10:49:00;5.43;;;1.27;;
62616;SDS011;62539;51.190;6.808;2023-07-13T10:51:31;4.10;;;1.27;;
62616;SDS011;62539;51.190;6.808;2023-07-13T10:54:12;6.00;;;1.55;;
62616;SDS011;62539;51.190;6.808;2023-07-13T10:59:45;5.45;;;1.52;;
62616;SDS011;62539;51.190;6.808;2023-07-13T11:02:37;3.97;;;1.33;;
62616;SDS011;62539;51.190;6.808;2023-07-13T11:11:02;3.03;;;1.35;;
62616;SDS011;62539;51.190;6.808;2023-07-13T11:13:38;5.45;;;1.52;;
62616;SDS011;62539;51.190;6.808;2023-07-13T11:16:32;4.28;;;1.42;;
62616;SDS011;62539;51.190;6.808;2023-07-13T11:21:27;4.07;;;1.50;;
62616;SDS011;62539;51.190;6.808;2023-07-13T11:24:13;6.78;;;1.40;;
62616;SDS011;62539;51.190;6.808;2023-07-13T11:31:58;4.43;;;1.42;;
62616;SDS011;62539;51.190;6.808;2023-07-13T11:34:45;6.63;;;1.67;;
62616;SDS011;62539;51.190;6.808;2023-07-13T11:37:12;5.35;;;1.40;;
62616;SDS011;62539;51.190;6.808;2023-07-13T11:39:44;5.90;;;1.40;;
62616;SDS011;62539;51.190;6.808;2023-07-13T11:42:16;5.57;;;1.35;;
62616;SDS011;62539;51.190;6.808;2023-07-13T11:44:48;4.38;;;1.60;;
62616;SDS011;62539;51.190;6.808;2023-07-13T11:47:20;5.18;;;1.27;;
62616;SDS011;62539;51.190;6.808;2023-07-13T11:49:51;9.77;;;1.48;;
62616;SDS011;62539;51.190;6.808;2023-07-13T11:52:27;6.15;;;1.30;;
62616;SDS011;62539;51.190;6.808;2023-07-13T11:55:03;2.92;;;1.40;;
62616;SDS011;62539;51.190;6.808;2023-07-13T11:58:01;5.30;;;1.65;;
62616;SDS011;62539;51.190;6.808;2023-07-13T12:00:28;2.85;;;1.20;;
62616;SDS011;62539;51.190;6.808;2023-07-13T12:05:27;2.92;;;1.20;;
62616;SDS011;62539;51.190;6.808;2023-07-13T12:07:54;8.35;;;1.60;;
62616;SDS011;62539;51.190;6.808;2023-07-13T12:10:27;4.60;;;1.30;;
62616;SDS011;62539;51.190;6.808;2023-07-13T12:12:57;5.75;;;1.48;;
62616;SDS011;62539;51.190;6.808;2023-07-13T12:15:30;3.72;;;1.25;;
62616;SDS011;62539;51.190;6.808;2023-07-13T12:18:17;7.88;;;1.60;;
62616;SDS011;62539;51.190;6.808;2023-07-13T12:20:55;5.65;;;1.40;;
62616;SDS011;62539;51.190;6.808;2023-07-13T12:23:25;5.10;;;1.60;;
62616;SDS011;62539;51.190;6.808;2023-07-13T12:26:00;4.78;;;1.48;;
62616;SDS011;62539;51.190;6.808;2023-07-13T12:31:05;7.28;;;1.20;;
62616;SDS011;62539;51.190;6.808;2023-07-13T12:33:56;3.08;;;1.40;;
62616;SDS011;62539;51.190;6.808;2023-07-13T12:36:46;3.92;;;1.10;;
62616;SDS011;62539;51.190;6.808;2023-07-13T12:39:20;4.88;;;1.30;;
62616;SDS011;62539;51.190;6.808;2023-07-13T12:42:19;3.28;;;1.35;;
62616;SDS011;62539;51.190;6.808;2023-07-13T12:44:52;5.05;;;1.33;;
62616;SDS011;62539;51.190;6.808;2023-07-13T12:47:50;2.53;;;1.02;;
62616;SDS011;62539;51.190;6.808;2023-07-13T12:50:27;2.83;;;1.10;;
62616;SDS011;62539;51.190;6.808;2023-07-13T12:53:02;2.83;;;1.10;;
62616;SDS011;62539;51.190;6.808;2023-07-13T12:55:32;5.40;;;1.30;;
62616;SDS011;62539;51.190;6.808;2023-07-13T12:58:09;4.53;;;2.15;;
62616;SDS011;62539;51.190;6.808;2023-07-13T13:00:50;2.83;;;1.08;;
62616;SDS011;62539;51.190;6.808;2023-07-13T13:06:05;1.50;;;0.75;;
62616;SDS011;62539;51.190;6.808;2023-07-13T13:08:49;3.08;;;0.88;;
62616;SDS011;62539;51.190;6.808;2023-07-13T13:11:18;2.53;;;0.98;;
62616;SDS011;62539;51.190;6.808;2023-07-13T13:13:46;2.80;;;1.20;;
62616;SDS011;62539;51.190;6.808;2023-07-13T13:18:49;3.88;;;1.05;;
62616;SDS011;62539;51.190;6.808;2023-07-13T13:21:19;3.20;;;1.10;;
62616;SDS011;62539;51.190;6.808;2023-07-13T13:23:46;1.98;;;1.23;;
62616;SDS011;62539;51.190;6.808;2023-07-13T13:26:12;3.63;;;1.30;;
62616;SDS011;62539;51.190;6.808;2023-07-13T13:28:43;2.97;;;1.17;;
62616;SDS011;62539;51.190;6.808;2023-07-13T13:31:10;4.28;;;1.20;;
62616;SDS011;62539;51.190;6.808;2023-07-13T13:33:37;7.05;;;1.33;;
62616;SDS011;62539;51.190;6.808;2023-07-13T13:36:17;2.63;;;1.10;;
62616;SDS011;62539;51.190;6.808;2023-07-13T13:38:47;1.67;;;0.80;;
62616;SDS011;62539;51.190;6.808;2023-07-13T13:41:16;4.35;;;1.10;;
62616;SDS011;62539;51.190;6.808;2023-07-13T13:43:42;3.92;;;1.10;;
62616;SDS011;62539;51.190;6.808;2023-07-13T13:46:17;2.83;;;1.17;;
62616;SDS011;62539;51.190;6.808;2023-07-13T13:48:47;8.00;;;1.40;;
62616;SDS011;62539;51.190;6.808;2023-07-13T13:51:17;4.38;;;1.25;;
62616;SDS011;62539;51.190;6.808;2023-07-13T13:53:46;4.55;;;1.40;;
62616;SDS011;62539;51.190;6.808;2023-07-13T13:56:13;7.63;;;1.60;;
62616;SDS011;62539;51.190;6.808;2023-07-13T13:58:40;5.78;;;1.50;;
62616;SDS011;62539;51.190;6.808;2023-07-13T14:01:13;8.98;;;1.30;;
62616;SDS011;62539;51.190;6.808;2023-07-13T14:03:47;10.45;;;1.33;;
62616;SDS011;62539;51.190;6.808;2023-07-13T14:06:19;2.45;;;0.90;;
62616;SDS011;62539;51.190;6.808;2023-07-13T14:08:45;5.50;;;1.30;;
62616;SDS011;62539;51.190;6.808;2023-07-13T14:11:12;1.83;;;1.23;;
62616;SDS011;62539;51.190;6.808;2023-07-13T14:13:42;4.15;;;1.40;;
62616;SDS011;62539;51.190;6.808;2023-07-13T14:16:15;3.13;;;1.40;;
62616;SDS011;62539;51.190;6.808;2023-07-13T14:18:45;2.72;;;1.17;;
62616;SDS011;62539;51.190;6.808;2023-07-13T14:21:16;2.75;;;1.13;;
62616;SDS011;62539;51.190;6.808;2023-07-13T14:23:46;2.97;;;1.27;;
62616;SDS011;62539;51.190;6.808;2023-07-13T14:26:16;4.90;;;1.20;;
62616;SDS011;62539;51.190;6.808;2023-07-13T14:28:49;5.97;;;1.10;;
62616;SDS011;62539;51.190;6.808;2023-07-13T14:31:20;3.17;;;1.35;;
62616;SDS011;62539;51.190;6.808;2023-07-13T14:33:48;2.80;;;1.13;;
62616;SDS011;62539;51.190;6.808;2023-07-13T14:36:32;7.45;;;1.40;;
62616;SDS011;62539;51.190;6.808;2023-07-13T14:39:10;2.95;;;1.13;;
62616;SDS011;62539;51.190;6.808;2023-07-13T14:41:41;4.78;;;1.10;;
62616;SDS011;62539;51.190;6.808;2023-07-13T14:44:17;2.63;;;1.10;;
62616;SDS011;62539;51.190;6.808;2023-07-13T14:46:48;6.20;;;1.25;;
62616;SDS011;62539;51.190;6.808;2023-07-13T14:52:13;4.90;;;1.30;;
62616;SDS011;62539;51.190;6.808;2023-07-13T14:54:45;3.20;;;1.05;;
62616;SDS011;62539;51.190;6.808;2023-07-13T14:57:11;3.97;;;1.00;;
62616;SDS011;62539;51.190;6.808;2023-07-13T14:59:45;9.32;;;1.33;;
62616;SDS011;62539;51.190;6.808;2023-07-13T15:02:15;9.18;;;1.30;;
62616;SDS011;62539;51.190;6.808;2023-07-13T15:04:54;3.25;;;1.30;;
62616;SDS011;62539;51.190;6.808;2023-07-13T15:07:20;3.45;;;1.20;;
62616;SDS011;62539;51.190;6.808;2023-07-13T15:09:46;3.38;;;1.45;;
62616;SDS011;62539;51.190;6.808;2023-07-13T15:12:12;2.72;;;1.10;;
62616;SDS011;62539;51.190;6.808;2023-07-13T15:14:39;2.10;;;1.00;;
62616;SDS011;62539;51.190;6.808;2023-07-13T15:17:04;3.55;;;1.25;;
62616;SDS011;62539;51.190;6.808;2023-07-13T15:19:43;2.70;;;1.10;;
62616;SDS011;62539;51.190;6.808;2023-07-13T15:22:09;3.45;;;1.13;;
62616;SDS011;62539;51.190;6.808;2023-07-13T15:24:35;3.08;;;1.10;;
62616;SDS011;62539;51.190;6.808;2023-07-13T15:27:02;5.70;;;1.10;;
62616;SDS011;62539;51.190;6.808;2023-07-13T15:29:27;3.95;;;1.00;;
62616;SDS011;62539;51.190;6.808;2023-07-13T15:31:53;2.97;;;1.30;;
62616;SDS011;62539;51.190;6.808;2023-07-13T15:34:20;4.53;;;1.23;;
62616;SDS011;62539;51.190;6.808;2023-07-13T15:36:51;3.13;;;1.17;;
62616;SDS011;62539;51.190;6.808;2023-07-13T15:39:16;6.47;;;1.10;;
62616;SDS011;62539;51.190;6.808;2023-07-13T15:41:42;1.70;;;0.95;;
62616;SDS011;62539;51.190;6.808;2023-07-13T15:44:21;2.65;;;0.95;;
62616;SDS011;62539;51.190;6.808;2023-07-13T15:46:57;2.70;;;1.00;;
62616;SDS011;62539;51.190;6.808;2023-07-13T15:49:25;3.28;;;0.90;;
62616;SDS011;62539;51.190;6.808;2023-07-13T15:51:51;2.20;;;0.90;;
62616;SDS011;62539;51.190;6.808;2023-07-13T15:54:17;4.13;;;1.20;;
62616;SDS011;62539;51.190;6.808;2023-07-13T15:56:45;4.30;;;0.98;;